Blytheville, Arkansas
Current Conditions -  °F | °C
As of 2:53 AM on Saturday 25 Oct 2014 (Local Time) from KHKA Reporting Station
Clear Clear  
Wind Chill: 57°   Ceiling: Unl
Heat Index: 57°   Visibility: 10mi
Dew Point: 55°   Wind: 7mph
Humidity: 93%   Direction: 210°SSW
Pressure: 30.06"   Gusts: NA
Location:  35.93°N, 89.9°W
Report Text: KHKA 250753Z AUTO 21006KT 10SM CLR 14/13 A3006 RMK AO2 SLP178 T01390128
Loading
Personal Weather Stations






























Interactive Weather Map
Tropical Storm Tracking
New forecast layout! Learn more

10-Day Weather Forecast

Advertisements
Track Severe Weather on mobile